createdAt,value
2019-03-09T00:00:44.293Z,12.83
2019-03-09T00:03:19.825Z,7.33
2019-03-09T00:05:51.631Z,10.60
2019-03-09T00:08:26.941Z,13.33
2019-03-09T00:11:03.687Z,13.90
2019-03-09T00:13:36.556Z,11.23
2019-03-09T00:16:14.088Z,6.43
2019-03-09T00:18:46.982Z,10.17
2019-03-09T00:21:22.107Z,14.17
2019-03-09T00:24:27.946Z,10.53
2019-03-09T00:27:18.448Z,5.83
2019-03-09T00:30:07.926Z,12.40
2019-03-09T00:32:41.711Z,9.40
2019-03-09T00:35:15.359Z,8.10
2019-03-09T00:40:45.520Z,9.00
2019-03-09T00:43:17.209Z,10.87
2019-03-09T00:45:56.336Z,8.83
2019-03-09T00:48:28.656Z,11.70
2019-03-09T00:51:00.672Z,12.50
2019-03-09T00:53:34.308Z,11.63
2019-03-09T00:56:07.702Z,9.40
2019-03-09T00:58:44.570Z,7.27
2019-03-09T01:01:19.009Z,12.50
2019-03-09T01:03:51.935Z,7.47
2019-03-09T01:06:23.520Z,15.87
2019-03-09T01:08:59.512Z,11.03
2019-03-09T01:11:36.195Z,11.40
2019-03-09T01:14:10.725Z,13.10
2019-03-09T01:16:43.275Z,12.70
2019-03-09T01:19:25.355Z,9.90
2019-03-09T01:21:58.178Z,14.80
2019-03-09T01:24:43.535Z,10.30
2019-03-09T01:27:16.012Z,8.23
2019-03-09T01:29:57.063Z,11.43
2019-03-09T01:32:29.172Z,9.83
2019-03-09T01:35:00.039Z,10.83
2019-03-09T01:37:32.362Z,9.97
2019-03-09T01:40:10.486Z,9.80
2019-03-09T01:42:42.586Z,9.53
2019-03-09T01:45:16.156Z,7.63
2019-03-09T01:47:52.410Z,9.77
2019-03-09T01:50:44.653Z,5.30
2019-03-09T01:53:15.581Z,9.53
2019-03-09T01:55:52.578Z,6.50
2019-03-09T01:58:26.051Z,7.30
2019-03-09T02:01:05.593Z,4.77
2019-03-09T02:03:53.638Z,5.17
2019-03-09T02:06:26.333Z,6.57
2019-03-09T02:08:57.989Z,6.63
2019-03-09T02:11:31.892Z,7.40
2019-03-09T02:14:05.835Z,9.27
2019-03-09T02:16:39.790Z,4.97
2019-03-09T02:19:12.632Z,6.47
2019-03-09T02:21:50.924Z,7.73
2019-03-09T02:24:31.035Z,8.47
2019-03-09T02:27:21.684Z,5.73
2019-03-09T02:29:59.383Z,10.37
2019-03-09T02:32:31.514Z,5.57
2019-03-09T02:35:06.572Z,2.93
2019-03-09T02:37:38.211Z,4.07
2019-03-09T02:40:12.194Z,4.10
2019-03-09T02:42:55.442Z,6.30
2019-03-09T02:45:32.385Z,4.97
2019-03-09T02:48:13.734Z,6.63
2019-03-09T02:51:02.204Z,4.50
2019-03-09T02:53:39.597Z,4.77
2019-03-09T02:56:15.135Z,5.50
2019-03-09T02:58:49.137Z,3.80
2019-03-09T03:01:44.111Z,4.77
2019-03-09T03:04:16.955Z,5.37
2019-03-09T03:06:52.195Z,3.37
2019-03-09T03:09:24.353Z,3.83
2019-03-09T03:11:56.705Z,2.50
2019-03-09T03:14:29.446Z,2.83
2019-03-09T03:17:02.838Z,3.13
2019-03-09T03:19:37.561Z,7.90
2019-03-09T03:22:19.176Z,6.00
2019-03-09T03:24:51.651Z,2.13
2019-03-09T03:27:25.099Z,4.20
2019-03-09T03:29:56.122Z,1.90
2019-03-09T03:32:30.802Z,2.00
2019-03-09T03:35:02.283Z,1.73
2019-03-09T03:37:33.476Z,1.10
2019-03-09T03:40:06.993Z,4.10
2019-03-09T03:42:41.642Z,2.63
2019-03-09T03:45:15.364Z,1.87
2019-03-09T03:47:56.422Z,2.83
2019-03-09T03:50:38.726Z,3.23
2019-03-09T03:53:17.759Z,1.97
2019-03-09T03:55:56.878Z,3.60
2019-03-09T03:58:31.704Z,3.57
2019-03-09T04:01:04.491Z,2.30
2019-03-09T04:03:34.716Z,2.23
2019-03-09T04:06:06.970Z,3.07
2019-03-09T04:08:40.339Z,2.10
2019-03-09T04:11:28.495Z,2.17
2019-03-09T04:14:03.910Z,1.07
2019-03-09T04:19:33.485Z,2.70
2019-03-09T04:22:04.629Z,1.73
2019-03-09T04:24:39.912Z,2.17
2019-03-09T04:27:19.374Z,0.70
2019-03-09T04:29:57.110Z,2.80
2019-03-09T04:32:35.836Z,1.73
2019-03-09T04:35:06.285Z,3.20
2019-03-09T04:37:41.861Z,0.70
2019-03-09T04:40:13.723Z,1.33
2019-03-09T04:42:48.530Z,0.97
2019-03-09T04:45:20.727Z,0.90
2019-03-09T04:47:53.868Z,0.70
2019-03-09T04:50:32.194Z,0.70
2019-03-09T04:53:08.274Z,1.53
2019-03-09T04:55:43.314Z,0.63
2019-03-09T04:58:16.143Z,0.70
2019-03-09T05:00:51.361Z,1.20
2019-03-09T05:03:23.904Z,1.10
2019-03-09T05:05:55.770Z,0.70
2019-03-09T05:09:01.702Z,0.80
2019-03-09T05:11:36.437Z,3.43
2019-03-09T05:14:12.189Z,1.23
2019-03-09T05:16:49.884Z,0.80
2019-03-09T05:19:22.038Z,5.10
2019-03-09T05:21:54.960Z,1.23
2019-03-09T05:24:25.788Z,1.97
2019-03-09T05:26:56.701Z,4.53
2019-03-09T05:29:28.557Z,1.53
2019-03-09T05:32:00.928Z,1.73
2019-03-09T05:34:35.358Z,2.67
2019-03-09T05:37:07.430Z,1.97
2019-03-09T05:39:38.243Z,2.50
2019-03-09T05:42:10.732Z,4.80
2019-03-09T05:44:43.300Z,2.67
2019-03-09T05:47:19.891Z,2.73
2019-03-09T05:49:58.347Z,2.13
2019-03-09T05:52:39.097Z,2.43
2019-03-09T05:55:18.944Z,3.40
2019-03-09T05:57:51.995Z,2.90
2019-03-09T06:00:22.877Z,3.80
2019-03-09T06:03:05.544Z,3.17
2019-03-09T06:06:02.923Z,3.87
2019-03-09T06:08:41.691Z,3.03
2019-03-09T06:11:21.297Z,4.87
2019-03-09T06:13:56.542Z,3.57
2019-03-09T06:16:45.251Z,3.40
2019-03-09T06:19:20.919Z,3.53
2019-03-09T06:22:00.022Z,8.67
2019-03-09T06:24:30.855Z,4.73
2019-03-09T06:27:03.231Z,3.67
2019-03-09T06:29:34.185Z,3.50
2019-03-09T06:32:40.827Z,4.77
2019-03-09T06:35:14.275Z,5.57
2019-03-09T06:37:50.246Z,4.43
2019-03-09T06:40:23.009Z,4.50
2019-03-09T06:42:57.104Z,4.87
2019-03-09T06:45:39.680Z,5.50
2019-03-09T06:48:10.849Z,4.50
2019-03-09T06:50:51.333Z,7.67
2019-03-09T06:53:22.922Z,7.20
2019-03-09T06:55:55.321Z,5.23
2019-03-09T06:58:28.200Z,4.10
2019-03-09T07:00:59.525Z,3.07
2019-03-09T07:03:33.823Z,9.10
2019-03-09T07:06:12.266Z,4.43
2019-03-09T07:08:48.120Z,5.33
2019-03-09T07:11:32.367Z,9.37
2019-03-09T07:14:46.727Z,4.60
2019-03-09T07:17:20.725Z,7.20
2019-03-09T07:19:55.971Z,5.80
2019-03-09T07:22:32.438Z,6.33
2019-03-09T07:25:05.640Z,6.50
2019-03-09T07:27:37.285Z,7.43
2019-03-09T07:30:12.169Z,4.20
2019-03-09T07:32:44.473Z,6.00
2019-03-09T07:35:16.529Z,8.27
2019-03-09T07:37:48.391Z,5.50
2019-03-09T07:40:25.383Z,5.03
2019-03-09T07:43:09.870Z,4.97
2019-03-09T07:45:44.149Z,5.87
2019-03-09T07:48:16.340Z,4.40
2019-03-09T07:50:48.109Z,8.23
2019-03-09T07:53:20.277Z,7.10
2019-03-09T07:55:56.766Z,6.47
2019-03-09T07:58:29.009Z,5.70
2019-03-09T08:01:00.484Z,9.00
2019-03-09T08:03:32.710Z,5.50
2019-03-09T08:06:11.426Z,8.77
2019-03-09T08:08:47.082Z,11.43
2019-03-09T08:11:20.223Z,7.37
2019-03-09T08:13:57.868Z,8.90
2019-03-09T08:16:35.946Z,7.33
2019-03-09T08:19:03.954Z,5.63
2019-03-09T08:21:44.598Z,7.00
2019-03-09T08:24:15.854Z,11.17
2019-03-09T08:26:53.481Z,8.30
2019-03-09T08:29:29.090Z,12.37
2019-03-09T08:32:02.150Z,11.27
2019-03-09T08:34:34.311Z,10.97
2019-03-09T08:37:31.603Z,12.37
2019-03-09T08:40:11.891Z,12.13
2019-03-09T08:42:46.376Z,8.93
2019-03-09T08:45:22.922Z,9.80
2019-03-09T08:47:55.001Z,13.50
2019-03-09T08:50:30.039Z,8.57
2019-03-09T08:53:04.362Z,11.10
2019-03-09T08:55:58.425Z,9.00
2019-03-09T08:58:34.535Z,11.87
2019-03-09T09:01:09.769Z,12.00
2019-03-09T09:03:42.821Z,8.20
2019-03-09T09:06:35.937Z,5.93
2019-03-09T09:09:07.653Z,7.43
2019-03-09T09:12:10.802Z,8.97
2019-03-09T09:15:14.941Z,9.63
2019-03-09T09:18:55.579Z,7.63
2019-03-09T09:28:20.868Z,7.90
2019-03-09T09:30:53.199Z,8.63
2019-03-09T09:33:23.929Z,8.73
2019-03-09T09:35:55.571Z,8.33
2019-03-09T09:38:26.271Z,10.97
2019-03-09T09:40:57.780Z,6.50
2019-03-09T09:43:28.699Z,9.77
2019-03-09T09:46:00.796Z,12.07
2019-03-09T09:48:33.347Z,7.53
2019-03-09T09:51:04.858Z,11.17
2019-03-09T09:53:37.650Z,10.47
2019-03-09T09:56:08.629Z,11.47
2019-03-09T09:58:39.482Z,9.90
2019-03-09T10:01:10.120Z,9.17
2019-03-09T10:03:45.091Z,8.87
2019-03-09T10:06:23.285Z,9.17
2019-03-09T10:08:54.982Z,8.90
2019-03-09T10:11:26.605Z,8.33
2019-03-09T10:13:57.461Z,8.90
2019-03-09T10:16:31.346Z,6.03
2019-03-09T10:19:03.234Z,11.73
2019-03-09T10:21:35.956Z,8.77
2019-03-09T10:24:07.844Z,7.77
2019-03-09T10:26:41.679Z,7.90
2019-03-09T10:32:49.994Z,8.87
2019-03-09T10:35:21.833Z,8.10
2019-03-09T10:38:02.639Z,8.17
2019-03-09T10:40:33.347Z,10.03
2019-03-09T10:43:05.095Z,8.10
2019-03-09T10:45:36.583Z,7.43
2019-03-09T10:48:07.385Z,6.40
2019-03-09T10:50:39.855Z,8.27
2019-03-09T10:53:14.669Z,4.93
2019-03-09T10:55:50.330Z,9.47
2019-03-09T10:58:20.629Z,13.23
2019-03-09T11:00:54.310Z,9.20
2019-03-09T11:03:26.158Z,6.43
2019-03-09T11:05:56.602Z,8.10
2019-03-09T11:08:28.196Z,7.13
2019-03-09T11:11:01.699Z,10.03
2019-03-09T11:13:33.432Z,8.27
2019-03-09T11:16:05.620Z,8.70
2019-03-09T11:18:37.023Z,5.77
2019-03-09T11:21:07.892Z,6.20
2019-03-09T11:23:40.209Z,9.80
2019-03-09T11:26:11.988Z,4.13
2019-03-09T11:36:24.322Z,6.20
2019-03-09T11:39:02.866Z,3.67
2019-03-09T11:41:37.236Z,2.80
2019-03-09T11:48:22.561Z,4.87
2019-03-09T11:55:10.613Z,6.30
2019-03-09T11:57:51.511Z,3.33
2019-03-09T12:00:41.465Z,2.83
2019-03-09T12:03:12.822Z,5.63
2019-03-09T12:06:04.576Z,4.33
2019-03-09T12:08:45.743Z,5.70
2019-03-09T12:11:17.931Z,4.73
2019-03-09T12:14:04.222Z,5.93
2019-03-09T12:17:12.272Z,5.30
2019-03-09T12:19:49.160Z,6.17
2019-03-09T12:22:21.050Z,5.80
2019-03-09T12:25:01.991Z,2.77
2019-03-09T12:27:59.283Z,8.00
2019-03-09T12:31:14.543Z,5.90
2019-03-09T12:37:44.106Z,6.37
2019-03-09T12:41:06.490Z,4.73
2019-03-09T12:43:48.348Z,3.07
2019-03-09T12:46:21.619Z,4.50
2019-03-09T12:48:56.633Z,3.60
2019-03-09T12:51:34.786Z,3.20
2019-03-09T12:58:06.643Z,3.87
2019-03-09T13:00:38.318Z,4.63
2019-03-09T13:03:16.851Z,4.93
2019-03-09T13:05:49.060Z,3.63
2019-03-09T13:08:20.341Z,3.20
2019-03-09T13:10:52.016Z,3.20
2019-03-09T13:13:22.931Z,3.07
2019-03-09T13:15:54.736Z,4.30
2019-03-09T13:18:28.516Z,3.70
2019-03-09T13:21:03.452Z,4.00
2019-03-09T13:23:38.943Z,4.53
2019-03-09T13:26:12.642Z,6.80
2019-03-09T13:28:44.136Z,5.07
2019-03-09T13:31:18.415Z,8.17
2019-03-09T13:33:51.668Z,10.30
2019-03-09T13:36:22.489Z,9.13
2019-03-09T13:38:52.657Z,15.80
2019-03-09T13:41:25.384Z,10.77
2019-03-09T13:43:57.255Z,17.07
2019-03-09T13:46:31.796Z,13.27
2019-03-09T13:49:02.851Z,17.27
2019-03-09T13:51:38.535Z,16.10
2019-03-09T13:54:20.336Z,14.30
2019-03-09T13:56:55.037Z,15.93
2019-03-09T13:59:27.386Z,25.33
2019-03-09T14:01:58.092Z,18.80
2019-03-09T14:04:29.564Z,17.83
2019-03-09T14:07:00.423Z,19.90
2019-03-09T14:09:32.868Z,24.23
2019-03-09T14:12:04.349Z,18.20
2019-03-09T14:14:36.422Z,19.77
2019-03-09T14:17:08.516Z,22.10
2019-03-09T14:19:39.792Z,24.00
2019-03-09T14:22:13.745Z,19.17
2019-03-09T14:24:45.358Z,15.63
2019-03-09T14:27:16.475Z,20.67
2019-03-09T14:29:50.905Z,19.27
2019-03-09T14:32:23.914Z,23.30
2019-03-09T14:35:28.179Z,22.03
2019-03-09T14:40:32.554Z,23.97
2019-03-09T14:43:07.430Z,23.07
2019-03-09T14:45:39.517Z,28.97
2019-03-09T14:48:12.034Z,33.63
2019-03-09T14:50:47.523Z,25.73
2019-03-09T14:53:19.240Z,33.17
2019-03-09T14:55:50.305Z,35.47
2019-03-09T14:58:21.237Z,28.57
2019-03-09T15:00:52.420Z,26.70
2019-03-09T15:03:23.911Z,30.67
2019-03-09T15:05:56.141Z,30.40
2019-03-09T15:08:27.956Z,33.67
2019-03-09T15:10:59.735Z,27.27
2019-03-09T15:13:30.258Z,31.50
2019-03-09T15:16:12.523Z,33.70
2019-03-09T15:18:44.357Z,35.73
2019-03-09T15:21:16.315Z,27.70
2019-03-09T15:23:49.573Z,26.70
2019-03-09T15:26:21.438Z,33.77
2019-03-09T15:28:53.584Z,27.60
2019-03-09T15:31:29.160Z,22.03
2019-03-09T15:34:07.224Z,25.70
2019-03-09T15:36:39.827Z,29.53
2019-03-09T15:39:14.197Z,27.33
2019-03-09T15:41:46.721Z,28.00
2019-03-09T15:44:17.288Z,34.43
2019-03-09T15:46:48.258Z,27.80
2019-03-09T15:49:18.803Z,28.30
2019-03-09T15:51:49.264Z,24.47
2019-03-09T15:54:20.819Z,29.90
2019-03-09T15:56:52.037Z,27.30
2019-03-09T15:59:24.424Z,29.63
2019-03-09T16:01:56.326Z,28.60
2019-03-09T16:04:30.047Z,23.73
2019-03-09T16:07:06.802Z,20.73
2019-03-09T16:09:37.277Z,21.97
2019-03-09T16:12:07.449Z,21.90
2019-03-09T16:14:38.130Z,24.07
2019-03-09T16:17:09.535Z,19.90
2019-03-09T16:19:41.019Z,37.30
2019-03-09T16:22:11.176Z,21.13
2019-03-09T16:24:43.014Z,15.97
2019-03-09T16:27:16.162Z,25.07
2019-03-09T16:29:46.337Z,22.83
2019-03-09T16:32:16.490Z,19.83
2019-03-09T16:34:46.673Z,25.10
2019-03-09T16:37:18.193Z,20.83
2019-03-09T16:39:48.643Z,24.73
2019-03-09T16:42:19.173Z,29.50
2019-03-09T16:44:50.971Z,30.80
2019-03-09T16:47:21.671Z,25.47
2019-03-09T16:49:51.862Z,28.27
2019-03-09T16:52:24.202Z,30.80
2019-03-09T16:54:54.495Z,26.13
2019-03-09T16:57:26.145Z,24.47
2019-03-09T17:00:18.732Z,24.37
2019-03-09T17:02:50.491Z,28.63
2019-03-09T17:05:21.017Z,21.77
2019-03-09T17:07:54.923Z,24.50
2019-03-09T17:10:28.786Z,21.33
2019-03-09T17:13:01.787Z,15.53
2019-03-09T17:15:32.665Z,14.57
2019-03-09T17:18:03.190Z,18.63
2019-03-09T17:20:34.119Z,18.57
2019-03-09T17:23:07.038Z,13.37
2019-03-09T17:25:38.783Z,14.13
2019-03-09T17:28:09.012Z,14.10
2019-03-09T17:30:42.606Z,14.77
2019-03-09T17:33:14.374Z,17.13
2019-03-09T17:35:44.545Z,14.67
2019-03-09T17:38:16.520Z,13.97
2019-03-09T17:40:47.421Z,11.27
2019-03-09T17:43:17.689Z,15.23
2019-03-09T17:45:48.757Z,14.90
2019-03-09T17:48:20.314Z,13.73
2019-03-09T17:50:50.942Z,15.63
2019-03-09T17:53:22.285Z,17.13
2019-03-09T17:55:52.462Z,16.73
2019-03-09T17:58:22.623Z,12.67
2019-03-09T18:00:53.903Z,12.07
2019-03-09T18:03:24.504Z,15.90
2019-03-09T18:05:54.725Z,22.00
2019-03-09T18:08:25.947Z,18.97
2019-03-09T18:10:59.026Z,19.93
2019-03-09T18:13:29.188Z,17.87
2019-03-09T18:16:01.382Z,16.93
2019-03-09T18:18:35.116Z,15.53
2019-03-09T18:21:06.721Z,17.20
2019-03-09T18:23:36.903Z,15.17
2019-03-09T18:26:12.088Z,16.60
2019-03-09T18:28:44.208Z,13.60
2019-03-09T18:31:15.529Z,15.07
2019-03-09T18:33:45.713Z,11.23
2019-03-09T18:36:16.493Z,14.80
2019-03-09T18:38:48.365Z,17.17
2019-03-09T18:41:19.017Z,17.00
2019-03-09T18:43:50.277Z,17.63
2019-03-09T18:46:20.511Z,20.33
2019-03-09T18:48:51.724Z,16.20
2019-03-09T18:51:24.191Z,16.53
2019-03-09T18:53:55.096Z,17.63
2019-03-09T18:56:26.239Z,14.53
2019-03-09T18:58:56.879Z,12.97
2019-03-09T19:01:27.407Z,13.80
2019-03-09T19:04:01.512Z,12.03
2019-03-09T19:06:32.539Z,11.80
2019-03-09T19:09:03.568Z,15.30
2019-03-09T19:11:37.005Z,10.97
2019-03-09T19:14:07.182Z,11.13
2019-03-09T19:16:38.553Z,9.03
2019-03-09T19:19:08.702Z,14.73
2019-03-09T19:21:39.351Z,12.57
2019-03-09T19:24:10.145Z,22.03
2019-03-09T19:26:40.842Z,13.93
2019-03-09T19:29:11.331Z,17.27
2019-03-09T19:31:44.101Z,13.73
2019-03-09T19:34:15.042Z,12.10
2019-03-09T19:36:45.585Z,13.33
2019-03-09T19:39:18.251Z,10.07
2019-03-09T19:41:49.448Z,8.10
2019-03-09T19:44:20.111Z,14.37
2019-03-09T19:46:51.452Z,15.30
2019-03-09T19:49:21.667Z,13.00
2019-03-09T19:51:53.263Z,14.03
2019-03-09T19:54:23.455Z,10.13
2019-03-09T19:56:56.247Z,11.37
2019-03-09T19:59:26.411Z,14.23
2019-03-09T20:01:59.660Z,11.50
2019-03-09T20:04:30.454Z,16.30
2019-03-09T20:07:02.363Z,12.30
2019-03-09T20:09:34.547Z,12.70
2019-03-09T20:12:06.819Z,11.43
2019-03-09T20:14:36.973Z,13.97
2019-03-09T20:17:07.410Z,9.03
2019-03-09T20:19:38.231Z,11.37
2019-03-09T20:22:09.229Z,11.47
2019-03-09T20:24:39.448Z,11.10
2019-03-09T20:27:11.250Z,12.27
2019-03-09T20:29:43.376Z,12.43
2019-03-09T20:32:14.346Z,11.87
2019-03-09T20:34:45.860Z,9.50
2019-03-09T20:37:16.755Z,11.33
2019-03-09T20:39:47.664Z,14.33
2019-03-09T20:42:19.116Z,14.03
2019-03-09T20:44:52.054Z,12.13
2019-03-09T20:47:22.654Z,10.70
2019-03-09T20:49:53.252Z,11.70
2019-03-09T20:52:23.826Z,18.87
2019-03-09T20:54:54.160Z,13.00
2019-03-09T20:57:25.872Z,18.03
2019-03-09T20:59:56.145Z,13.83
2019-03-09T21:02:27.534Z,14.70
2019-03-09T21:05:01.997Z,12.20
2019-03-09T21:07:33.204Z,10.47
2019-03-09T21:10:04.704Z,9.70
2019-03-09T21:12:36.800Z,13.67
2019-03-09T21:15:07.166Z,12.67
2019-03-09T21:17:37.472Z,12.83
2019-03-09T21:20:08.335Z,12.03
2019-03-09T21:22:39.243Z,15.47
2019-03-09T21:25:10.006Z,14.90
2019-03-09T21:27:43.962Z,15.10
2019-03-09T21:30:16.298Z,14.60
2019-03-09T21:32:46.923Z,15.87
2019-03-09T21:35:17.427Z,17.77
2019-03-09T21:37:47.659Z,15.37
2019-03-09T21:40:18.259Z,18.83
2019-03-09T21:42:48.891Z,17.03
2019-03-09T21:45:20.326Z,20.30
2019-03-09T21:47:50.814Z,19.47
2019-03-09T21:50:21.199Z,23.50
2019-03-09T21:52:51.778Z,20.30
2019-03-09T21:55:24.529Z,21.50
2019-03-09T21:57:56.760Z,27.97
2019-03-09T22:00:27.329Z,30.30
2019-03-09T22:02:58.053Z,25.77
2019-03-09T22:05:28.338Z,24.53
2019-03-09T22:07:59.034Z,28.57
2019-03-09T22:10:29.676Z,27.03
2019-03-09T22:13:00.307Z,28.90
2019-03-09T22:15:30.762Z,31.27
2019-03-09T22:18:03.366Z,27.67
2019-03-09T22:20:33.544Z,30.03
2019-03-09T22:23:04.100Z,39.80
2019-03-09T22:25:35.077Z,36.13
2019-03-09T22:28:08.830Z,34.90
2019-03-09T22:30:39.105Z,39.23
2019-03-09T22:33:11.342Z,31.30
2019-03-09T22:35:41.978Z,37.73
2019-03-09T22:38:15.578Z,31.40
2019-03-09T22:40:46.083Z,36.30
2019-03-09T22:43:16.378Z,41.80
2019-03-09T22:45:46.847Z,38.27
2019-03-09T22:48:18.062Z,41.63
2019-03-09T22:50:51.195Z,43.03
2019-03-09T22:53:21.542Z,45.77
2019-03-09T22:55:51.685Z,39.50
2019-03-09T22:58:21.866Z,44.60
2019-03-09T23:00:54.933Z,47.97
2019-03-09T23:03:25.644Z,45.47
2019-03-09T23:05:58.245Z,47.47
2019-03-09T23:08:30.690Z,46.33
2019-03-09T23:11:01.229Z,48.30
2019-03-09T23:13:32.376Z,44.87
2019-03-09T23:16:03.130Z,42.97
2019-03-09T23:18:35.557Z,44.17
2019-03-09T23:21:05.703Z,45.10
2019-03-09T23:23:43.496Z,43.63
2019-03-09T23:26:15.908Z,43.03
2019-03-09T23:28:50.934Z,47.20
2019-03-09T23:31:25.215Z,41.10
2019-03-09T23:33:59.446Z,49.73
2019-03-09T23:36:30.492Z,37.70
2019-03-09T23:39:00.680Z,43.57
2019-03-09T23:41:32.475Z,43.30
2019-03-09T23:44:03.021Z,41.53
2019-03-09T23:46:37.836Z,44.13
2019-03-09T23:49:09.152Z,43.03
2019-03-09T23:51:39.304Z,42.97
2019-03-09T23:54:11.888Z,44.30
2019-03-09T23:56:43.101Z,46.43
2019-03-09T23:59:15.624Z,37.40
